sensor_id;sensor_type;location;lat;lon;timestamp;P1;durP1;ratioP1;P2;durP2;ratioP2
14013;SDS011;49110;52.584;13.408;2023-05-10T00:00:12;6.53;;;4.60;;
14013;SDS011;49110;52.584;13.408;2023-05-10T00:01:13;8.67;;;4.50;;
14013;SDS011;49110;52.584;13.408;2023-05-10T00:02:13;6.37;;;4.30;;
14013;SDS011;49110;52.584;13.408;2023-05-10T00:03:14;6.57;;;4.37;;
14013;SDS011;49110;52.584;13.408;2023-05-10T00:04:14;4.10;;;3.70;;
14013;SDS011;49110;52.584;13.408;2023-05-10T00:05:15;6.27;;;4.33;;
14013;SDS011;49110;52.584;13.408;2023-05-10T00:06:15;6.17;;;4.33;;
14013;SDS011;49110;52.584;13.408;2023-05-10T00:07:16;6.83;;;4.30;;
14013;SDS011;49110;52.584;13.408;2023-05-10T00:08:19;4.40;;;4.00;;
14013;SDS011;49110;52.584;13.408;2023-05-10T00:09:20;9.90;;;4.30;;
14013;SDS011;49110;52.584;13.408;2023-05-10T00:10:20;6.43;;;4.17;;
14013;SDS011;49110;52.584;13.408;2023-05-10T00:11:21;4.77;;;4.33;;
14013;SDS011;49110;52.584;13.408;2023-05-10T00:12:21;5.70;;;4.50;;
14013;SDS011;49110;52.584;13.408;2023-05-10T00:13:22;4.37;;;4.03;;
14013;SDS011;49110;52.584;13.408;2023-05-10T00:14:22;6.27;;;4.30;;
14013;SDS011;49110;52.584;13.408;2023-05-10T00:15:23;6.07;;;4.57;;
14013;SDS011;49110;52.584;13.408;2023-05-10T00:16:23;5.67;;;4.30;;
14013;SDS011;49110;52.584;13.408;2023-05-10T00:17:24;6.60;;;4.40;;
14013;SDS011;49110;52.584;13.408;2023-05-10T00:18:24;4.63;;;4.23;;
14013;SDS011;49110;52.584;13.408;2023-05-10T00:19:24;5.00;;;4.50;;
14013;SDS011;49110;52.584;13.408;2023-05-10T00:20:25;4.93;;;4.37;;
14013;SDS011;49110;52.584;13.408;2023-05-10T00:21:26;4.60;;;4.13;;
14013;SDS011;49110;52.584;13.408;2023-05-10T00:22:28;5.40;;;4.13;;
14013;SDS011;49110;52.584;13.408;2023-05-10T00:23:28;7.23;;;4.20;;
14013;SDS011;49110;52.584;13.408;2023-05-10T00:24:29;6.23;;;4.50;;
14013;SDS011;49110;52.584;13.408;2023-05-10T00:25:29;4.17;;;3.77;;
14013;SDS011;49110;52.584;13.408;2023-05-10T00:26:30;5.33;;;4.30;;
14013;SDS011;49110;52.584;13.408;2023-05-10T00:27:30;6.90;;;4.60;;
14013;SDS011;49110;52.584;13.408;2023-05-10T00:28:31;5.60;;;4.40;;
14013;SDS011;49110;52.584;13.408;2023-05-10T00:29:31;5.00;;;4.50;;
14013;SDS011;49110;52.584;13.408;2023-05-10T00:30:33;8.53;;;4.63;;
14013;SDS011;49110;52.584;13.408;2023-05-10T00:31:33;7.27;;;4.03;;
14013;SDS011;49110;52.584;13.408;2023-05-10T00:32:33;4.37;;;4.03;;
14013;SDS011;49110;52.584;13.408;2023-05-10T00:33:34;6.60;;;3.90;;
14013;SDS011;49110;52.584;13.408;2023-05-10T00:34:34;4.60;;;4.20;;
14013;SDS011;49110;52.584;13.408;2023-05-10T00:35:35;9.43;;;4.93;;
14013;SDS011;49110;52.584;13.408;2023-05-10T00:36:36;6.07;;;4.30;;
14013;SDS011;49110;52.584;13.408;2023-05-10T00:37:36;5.57;;;4.30;;
14013;SDS011;49110;52.584;13.408;2023-05-10T00:38:37;8.27;;;4.50;;
14013;SDS011;49110;52.584;13.408;2023-05-10T00:39:37;4.70;;;4.20;;
14013;SDS011;49110;52.584;13.408;2023-05-10T00:40:38;5.20;;;4.33;;
14013;SDS011;49110;52.584;13.408;2023-05-10T00:41:38;4.87;;;4.30;;
14013;SDS011;49110;52.584;13.408;2023-05-10T00:42:39;4.73;;;4.33;;
14013;SDS011;49110;52.584;13.408;2023-05-10T00:43:40;5.63;;;4.43;;
14013;SDS011;49110;52.584;13.408;2023-05-10T00:44:40;5.47;;;4.67;;
14013;SDS011;49110;52.584;13.408;2023-05-10T00:45:41;4.83;;;4.20;;
14013;SDS011;49110;52.584;13.408;2023-05-10T00:46:41;4.93;;;4.30;;
14013;SDS011;49110;52.584;13.408;2023-05-10T00:47:42;4.60;;;4.13;;
14013;SDS011;49110;52.584;13.408;2023-05-10T00:48:43;4.47;;;4.07;;
14013;SDS011;49110;52.584;13.408;2023-05-10T00:49:45;7.07;;;4.40;;
14013;SDS011;49110;52.584;13.408;2023-05-10T00:50:45;4.93;;;4.30;;
14013;SDS011;49110;52.584;13.408;2023-05-10T00:51:46;4.90;;;4.40;;
14013;SDS011;49110;52.584;13.408;2023-05-10T00:52:47;5.10;;;4.40;;
14013;SDS011;49110;52.584;13.408;2023-05-10T00:53:48;6.67;;;4.50;;
14013;SDS011;49110;52.584;13.408;2023-05-10T00:54:50;5.13;;;4.63;;
14013;SDS011;49110;52.584;13.408;2023-05-10T00:55:52;9.07;;;4.50;;
14013;SDS011;49110;52.584;13.408;2023-05-10T00:56:52;6.77;;;4.20;;
14013;SDS011;49110;52.584;13.408;2023-05-10T00:57:53;5.80;;;4.30;;
14013;SDS011;49110;52.584;13.408;2023-05-10T00:58:54;5.60;;;4.67;;
14013;SDS011;49110;52.584;13.408;2023-05-10T00:59:55;4.50;;;4.10;;
14013;SDS011;49110;52.584;13.408;2023-05-10T01:00:55;5.20;;;4.70;;
14013;SDS011;49110;52.584;13.408;2023-05-10T01:01:57;7.00;;;4.87;;
14013;SDS011;49110;52.584;13.408;2023-05-10T01:02:58;6.10;;;4.40;;
14013;SDS011;49110;52.584;13.408;2023-05-10T01:03:58;4.50;;;4.10;;
14013;SDS011;49110;52.584;13.408;2023-05-10T01:04:59;5.23;;;4.73;;
14013;SDS011;49110;52.584;13.408;2023-05-10T01:06:01;8.13;;;4.33;;
14013;SDS011;49110;52.584;13.408;2023-05-10T01:07:03;5.23;;;4.33;;
14013;SDS011;49110;52.584;13.408;2023-05-10T01:08:03;6.00;;;4.57;;
14013;SDS011;49110;52.584;13.408;2023-05-10T01:09:04;5.80;;;4.43;;
14013;SDS011;49110;52.584;13.408;2023-05-10T01:10:06;6.07;;;4.47;;
14013;SDS011;49110;52.584;13.408;2023-05-10T01:11:08;5.90;;;4.73;;
14013;SDS011;49110;52.584;13.408;2023-05-10T01:12:08;4.90;;;4.40;;
14013;SDS011;49110;52.584;13.408;2023-05-10T01:13:09;5.33;;;4.60;;
14013;SDS011;49110;52.584;13.408;2023-05-10T01:14:11;5.97;;;4.40;;
14013;SDS011;49110;52.584;13.408;2023-05-10T01:15:11;6.30;;;4.20;;
14013;SDS011;49110;52.584;13.408;2023-05-10T01:16:13;5.00;;;4.50;;
14013;SDS011;49110;52.584;13.408;2023-05-10T01:17:14;6.37;;;4.60;;
14013;SDS011;49110;52.584;13.408;2023-05-10T01:18:15;5.13;;;4.63;;
14013;SDS011;49110;52.584;13.408;2023-05-10T01:19:23;5.53;;;4.63;;
14013;SDS011;49110;52.584;13.408;2023-05-10T01:20:26;7.67;;;4.90;;
14013;SDS011;49110;52.584;13.408;2023-05-10T01:21:38;6.43;;;4.27;;
14013;SDS011;49110;52.584;13.408;2023-05-10T01:24:35;4.50;;;4.10;;
14013;SDS011;49110;52.584;13.408;2023-05-10T01:26:06;4.93;;;4.43;;
14013;SDS011;49110;52.584;13.408;2023-05-10T01:27:17;5.57;;;5.03;;
14013;SDS011;49110;52.584;13.408;2023-05-10T01:30:16;5.07;;;4.57;;
14013;SDS011;49110;52.584;13.408;2023-05-10T01:33:38;6.20;;;4.37;;
14013;SDS011;49110;52.584;13.408;2023-05-10T01:34:42;6.73;;;4.40;;
14013;SDS011;49110;52.584;13.408;2023-05-10T01:36:11;7.40;;;4.73;;
14013;SDS011;49110;52.584;13.408;2023-05-10T01:37:18;6.37;;;4.77;;
14013;SDS011;49110;52.584;13.408;2023-05-10T01:38:44;7.00;;;4.97;;
14013;SDS011;49110;52.584;13.408;2023-05-10T01:40:32;5.70;;;4.60;;
14013;SDS011;49110;52.584;13.408;2023-05-10T01:41:47;6.33;;;4.40;;
14013;SDS011;49110;52.584;13.408;2023-05-10T01:42:53;7.57;;;4.53;;
14013;SDS011;49110;52.584;13.408;2023-05-10T01:45:28;6.23;;;4.30;;
14013;SDS011;49110;52.584;13.408;2023-05-10T01:46:35;6.13;;;4.73;;
14013;SDS011;49110;52.584;13.408;2023-05-10T01:47:38;5.20;;;4.70;;
14013;SDS011;49110;52.584;13.408;2023-05-10T01:48:42;9.37;;;4.23;;
14013;SDS011;49110;52.584;13.408;2023-05-10T01:49:53;5.17;;;4.50;;
14013;SDS011;49110;52.584;13.408;2023-05-10T01:50:55;5.97;;;4.87;;
14013;SDS011;49110;52.584;13.408;2023-05-10T01:52:00;6.67;;;4.87;;
14013;SDS011;49110;52.584;13.408;2023-05-10T01:53:08;5.13;;;4.63;;
14013;SDS011;49110;52.584;13.408;2023-05-10T01:54:10;6.83;;;4.80;;
14013;SDS011;49110;52.584;13.408;2023-05-10T01:55:14;5.70;;;4.67;;
14013;SDS011;49110;52.584;13.408;2023-05-10T01:56:18;5.37;;;4.60;;
14013;SDS011;49110;52.584;13.408;2023-05-10T01:57:25;5.83;;;4.63;;
14013;SDS011;49110;52.584;13.408;2023-05-10T01:58:31;5.00;;;4.50;;
14013;SDS011;49110;52.584;13.408;2023-05-10T01:59:34;5.50;;;4.60;;
14013;SDS011;49110;52.584;13.408;2023-05-10T02:00:36;6.27;;;4.90;;
14013;SDS011;49110;52.584;13.408;2023-05-10T02:01:42;7.50;;;4.70;;
14013;SDS011;49110;52.584;13.408;2023-05-10T02:02:45;6.83;;;4.47;;
14013;SDS011;49110;52.584;13.408;2023-05-10T02:03:48;6.43;;;4.93;;
14013;SDS011;49110;52.584;13.408;2023-05-10T02:04:50;8.97;;;5.03;;
14013;SDS011;49110;52.584;13.408;2023-05-10T02:05:55;5.97;;;5.00;;
14013;SDS011;49110;52.584;13.408;2023-05-10T02:06:57;8.17;;;4.73;;
14013;SDS011;49110;52.584;13.408;2023-05-10T02:07:57;9.90;;;4.90;;
14013;SDS011;49110;52.584;13.408;2023-05-10T02:09:01;7.77;;;5.23;;
14013;SDS011;49110;52.584;13.408;2023-05-10T02:10:02;7.23;;;4.90;;
14013;SDS011;49110;52.584;13.408;2023-05-10T02:11:05;7.87;;;5.03;;
14013;SDS011;49110;52.584;13.408;2023-05-10T02:12:07;7.30;;;5.43;;
14013;SDS011;49110;52.584;13.408;2023-05-10T02:13:08;7.70;;;5.10;;
14013;SDS011;49110;52.584;13.408;2023-05-10T02:14:11;6.63;;;4.93;;
14013;SDS011;49110;52.584;13.408;2023-05-10T02:15:13;6.90;;;5.10;;
14013;SDS011;49110;52.584;13.408;2023-05-10T02:16:18;7.30;;;5.23;;
14013;SDS011;49110;52.584;13.408;2023-05-10T02:17:23;5.33;;;4.67;;
14013;SDS011;49110;52.584;13.408;2023-05-10T02:18:25;7.00;;;4.60;;
14013;SDS011;49110;52.584;13.408;2023-05-10T02:19:27;6.10;;;5.03;;
14013;SDS011;49110;52.584;13.408;2023-05-10T02:20:30;5.80;;;4.67;;
14013;SDS011;49110;52.584;13.408;2023-05-10T02:21:32;10.83;;;4.97;;
14013;SDS011;49110;52.584;13.408;2023-05-10T02:22:34;13.73;;;5.20;;
14013;SDS011;49110;52.584;13.408;2023-05-10T02:23:36;5.20;;;4.70;;
14013;SDS011;49110;52.584;13.408;2023-05-10T02:24:37;9.40;;;5.20;;
14013;SDS011;49110;52.584;13.408;2023-05-10T02:25:39;7.90;;;5.17;;
14013;SDS011;49110;52.584;13.408;2023-05-10T02:26:41;5.30;;;4.53;;
14013;SDS011;49110;52.584;13.408;2023-05-10T02:27:43;6.97;;;4.60;;
14013;SDS011;49110;52.584;13.408;2023-05-10T02:28:45;10.37;;;5.00;;
14013;SDS011;49110;52.584;13.408;2023-05-10T02:29:47;7.33;;;5.13;;
14013;SDS011;49110;52.584;13.408;2023-05-10T02:30:49;9.00;;;4.83;;
14013;SDS011;49110;52.584;13.408;2023-05-10T02:31:51;7.80;;;4.67;;
14013;SDS011;49110;52.584;13.408;2023-05-10T02:32:53;6.97;;;4.50;;
14013;SDS011;49110;52.584;13.408;2023-05-10T02:33:55;6.07;;;4.93;;
14013;SDS011;49110;52.584;13.408;2023-05-10T02:34:57;8.00;;;5.10;;
14013;SDS011;49110;52.584;13.408;2023-05-10T02:36:00;6.83;;;4.80;;
14013;SDS011;49110;52.584;13.408;2023-05-10T02:37:02;7.07;;;4.90;;
14013;SDS011;49110;52.584;13.408;2023-05-10T02:38:03;7.37;;;5.23;;
14013;SDS011;49110;52.584;13.408;2023-05-10T02:39:06;8.33;;;4.93;;
14013;SDS011;49110;52.584;13.408;2023-05-10T02:40:10;7.13;;;5.20;;
14013;SDS011;49110;52.584;13.408;2023-05-10T02:41:11;8.47;;;5.10;;
14013;SDS011;49110;52.584;13.408;2023-05-10T02:42:22;7.20;;;4.87;;
14013;SDS011;49110;52.584;13.408;2023-05-10T02:43:25;5.93;;;4.57;;
14013;SDS011;49110;52.584;13.408;2023-05-10T02:44:26;7.10;;;4.80;;
14013;SDS011;49110;52.584;13.408;2023-05-10T02:45:31;5.40;;;4.40;;
14013;SDS011;49110;52.584;13.408;2023-05-10T02:46:33;5.57;;;4.13;;
14013;SDS011;49110;52.584;13.408;2023-05-10T02:47:34;6.40;;;4.47;;
14013;SDS011;49110;52.584;13.408;2023-05-10T02:48:35;8.03;;;5.17;;
14013;SDS011;49110;52.584;13.408;2023-05-10T02:49:35;4.60;;;4.17;;
14013;SDS011;49110;52.584;13.408;2023-05-10T02:50:36;7.13;;;4.70;;
14013;SDS011;49110;52.584;13.408;2023-05-10T02:51:41;4.70;;;4.07;;
14013;SDS011;49110;52.584;13.408;2023-05-10T02:52:50;5.17;;;4.67;;
14013;SDS011;49110;52.584;13.408;2023-05-10T02:53:54;5.00;;;4.47;;
14013;SDS011;49110;52.584;13.408;2023-05-10T02:54:58;6.43;;;4.63;;
14013;SDS011;49110;52.584;13.408;2023-05-10T02:56:04;7.27;;;4.40;;
14013;SDS011;49110;52.584;13.408;2023-05-10T02:57:08;5.80;;;4.50;;
14013;SDS011;49110;52.584;13.408;2023-05-10T02:58:11;4.50;;;4.10;;
14013;SDS011;49110;52.584;13.408;2023-05-10T02:59:11;6.77;;;4.23;;
14013;SDS011;49110;52.584;13.408;2023-05-10T03:00:12;5.53;;;4.40;;
14013;SDS011;49110;52.584;13.408;2023-05-10T03:01:12;5.77;;;4.20;;
14013;SDS011;49110;52.584;13.408;2023-05-10T03:02:13;7.57;;;4.70;;
14013;SDS011;49110;52.584;13.408;2023-05-10T03:03:14;4.53;;;4.10;;
14013;SDS011;49110;52.584;13.408;2023-05-10T03:04:14;5.70;;;4.73;;
14013;SDS011;49110;52.584;13.408;2023-05-10T03:05:15;4.73;;;4.23;;
14013;SDS011;49110;52.584;13.408;2023-05-10T03:06:15;6.00;;;4.67;;
14013;SDS011;49110;52.584;13.408;2023-05-10T03:07:16;6.57;;;4.30;;
14013;SDS011;49110;52.584;13.408;2023-05-10T03:08:19;6.00;;;4.63;;
14013;SDS011;49110;52.584;13.408;2023-05-10T03:09:19;5.70;;;4.40;;
14013;SDS011;49110;52.584;13.408;2023-05-10T03:10:22;5.13;;;4.33;;
14013;SDS011;49110;52.584;13.408;2023-05-10T03:12:39;4.63;;;4.23;;
14013;SDS011;49110;52.584;13.408;2023-05-10T03:16:56;9.73;;;4.50;;
14013;SDS011;49110;52.584;13.408;2023-05-10T03:18:23;5.60;;;4.53;;
14013;SDS011;49110;52.584;13.408;2023-05-10T03:20:54;5.90;;;4.17;;
14013;SDS011;49110;52.584;13.408;2023-05-10T03:21:59;7.30;;;4.43;;
14013;SDS011;49110;52.584;13.408;2023-05-10T03:23:12;5.83;;;4.50;;
14013;SDS011;49110;52.584;13.408;2023-05-10T03:24:32;8.00;;;4.67;;
14013;SDS011;49110;52.584;13.408;2023-05-10T03:25:35;7.10;;;4.30;;
14013;SDS011;49110;52.584;13.408;2023-05-10T03:26:36;9.47;;;4.17;;
14013;SDS011;49110;52.584;13.408;2023-05-10T03:27:39;6.20;;;4.50;;
14013;SDS011;49110;52.584;13.408;2023-05-10T03:28:41;5.73;;;4.60;;
14013;SDS011;49110;52.584;13.408;2023-05-10T03:29:42;6.33;;;4.40;;
14013;SDS011;49110;52.584;13.408;2023-05-10T03:30:44;7.83;;;4.57;;
14013;SDS011;49110;52.584;13.408;2023-05-10T03:31:45;5.83;;;4.07;;
14013;SDS011;49110;52.584;13.408;2023-05-10T03:32:46;10.83;;;4.63;;
14013;SDS011;49110;52.584;13.408;2023-05-10T03:33:47;9.07;;;4.37;;
14013;SDS011;49110;52.584;13.408;2023-05-10T03:34:48;5.93;;;4.13;;
14013;SDS011;49110;52.584;13.408;2023-05-10T03:35:48;8.07;;;4.07;;
14013;SDS011;49110;52.584;13.408;2023-05-10T03:36:49;7.03;;;4.73;;
14013;SDS011;49110;52.584;13.408;2023-05-10T03:37:49;7.07;;;4.40;;
14013;SDS011;49110;52.584;13.408;2023-05-10T03:38:50;8.00;;;4.33;;
14013;SDS011;49110;52.584;13.408;2023-05-10T03:39:50;5.37;;;4.10;;
14013;SDS011;49110;52.584;13.408;2023-05-10T03:40:51;6.07;;;4.57;;
14013;SDS011;49110;52.584;13.408;2023-05-10T03:41:51;6.23;;;4.13;;
14013;SDS011;49110;52.584;13.408;2023-05-10T03:42:52;9.87;;;4.60;;
14013;SDS011;49110;52.584;13.408;2023-05-10T03:43:52;6.13;;;4.33;;
14013;SDS011;49110;52.584;13.408;2023-05-10T03:44:53;6.10;;;4.27;;
14013;SDS011;49110;52.584;13.408;2023-05-10T03:45:53;4.70;;;4.30;;
14013;SDS011;49110;52.584;13.408;2023-05-10T03:46:54;9.33;;;4.53;;
14013;SDS011;49110;52.584;13.408;2023-05-10T03:47:57;6.10;;;4.50;;
14013;SDS011;49110;52.584;13.408;2023-05-10T03:48:58;6.00;;;4.40;;
14013;SDS011;49110;52.584;13.408;2023-05-10T03:49:59;4.77;;;4.27;;
14013;SDS011;49110;52.584;13.408;2023-05-10T03:50:59;6.13;;;4.53;;
14013;SDS011;49110;52.584;13.408;2023-05-10T03:52:00;5.63;;;4.53;;
14013;SDS011;49110;52.584;13.408;2023-05-10T03:53:00;7.43;;;4.60;;
14013;SDS011;49110;52.584;13.408;2023-05-10T03:54:02;8.13;;;4.73;;
14013;SDS011;49110;52.584;13.408;2023-05-10T03:55:02;8.57;;;4.17;;
14013;SDS011;49110;52.584;13.408;2023-05-10T03:56:03;8.73;;;4.63;;
14013;SDS011;49110;52.584;13.408;2023-05-10T03:57:04;5.43;;;4.40;;
14013;SDS011;49110;52.584;13.408;2023-05-10T03:58:04;8.03;;;4.23;;
14013;SDS011;49110;52.584;13.408;2023-05-10T03:59:05;6.20;;;4.37;;
14013;SDS011;49110;52.584;13.408;2023-05-10T04:00:07;6.40;;;4.17;;
14013;SDS011;49110;52.584;13.408;2023-05-10T04:01:08;8.97;;;4.30;;
14013;SDS011;49110;52.584;13.408;2023-05-10T04:02:09;4.63;;;3.93;;
14013;SDS011;49110;52.584;13.408;2023-05-10T04:03:10;10.60;;;4.50;;
14013;SDS011;49110;52.584;13.408;2023-05-10T04:04:10;5.17;;;4.37;;
14013;SDS011;49110;52.584;13.408;2023-05-10T04:05:11;5.50;;;4.20;;
14013;SDS011;49110;52.584;13.408;2023-05-10T04:06:12;5.93;;;3.83;;
14013;SDS011;49110;52.584;13.408;2023-05-10T04:07:12;6.57;;;4.37;;
14013;SDS011;49110;52.584;13.408;2023-05-10T04:08:13;6.70;;;4.50;;
14013;SDS011;49110;52.584;13.408;2023-05-10T04:09:16;6.47;;;4.20;;
14013;SDS011;49110;52.584;13.408;2023-05-10T04:10:17;5.53;;;4.60;;
14013;SDS011;49110;52.584;13.408;2023-05-10T04:11:17;5.43;;;4.37;;
14013;SDS011;49110;52.584;13.408;2023-05-10T04:12:18;7.00;;;4.60;;
14013;SDS011;49110;52.584;13.408;2023-05-10T04:13:18;4.80;;;4.30;;
14013;SDS011;49110;52.584;13.408;2023-05-10T04:14:19;5.93;;;4.63;;
14013;SDS011;49110;52.584;13.408;2023-05-10T04:15:20;7.00;;;4.33;;
14013;SDS011;49110;52.584;13.408;2023-05-10T04:16:20;7.63;;;4.60;;
14013;SDS011;49110;52.584;13.408;2023-05-10T04:17:21;4.87;;;4.17;;
14013;SDS011;49110;52.584;13.408;2023-05-10T04:18:21;6.90;;;4.37;;
14013;SDS011;49110;52.584;13.408;2023-05-10T04:19:22;9.33;;;5.10;;
14013;SDS011;49110;52.584;13.408;2023-05-10T04:20:22;8.03;;;4.30;;
14013;SDS011;49110;52.584;13.408;2023-05-10T04:21:23;6.53;;;4.33;;
14013;SDS011;49110;52.584;13.408;2023-05-10T04:22:23;5.23;;;4.33;;
14013;SDS011;49110;52.584;13.408;2023-05-10T04:23:24;5.37;;;4.30;;
14013;SDS011;49110;52.584;13.408;2023-05-10T04:24:24;5.97;;;4.40;;
14013;SDS011;49110;52.584;13.408;2023-05-10T04:25:25;6.90;;;4.40;;
14013;SDS011;49110;52.584;13.408;2023-05-10T04:26:25;6.70;;;4.17;;
14013;SDS011;49110;52.584;13.408;2023-05-10T04:27:26;6.93;;;4.47;;
14013;SDS011;49110;52.584;13.408;2023-05-10T04:28:27;8.67;;;4.20;;
14013;SDS011;49110;52.584;13.408;2023-05-10T04:29:27;6.20;;;4.20;;
14013;SDS011;49110;52.584;13.408;2023-05-10T04:30:27;5.77;;;3.93;;
14013;SDS011;49110;52.584;13.408;2023-05-10T04:31:29;6.40;;;4.20;;
14013;SDS011;49110;52.584;13.408;2023-05-10T04:32:29;7.07;;;4.07;;
14013;SDS011;49110;52.584;13.408;2023-05-10T04:33:30;5.57;;;3.87;;
14013;SDS011;49110;52.584;13.408;2023-05-10T04:34:31;5.87;;;4.30;;
14013;SDS011;49110;52.584;13.408;2023-05-10T04:35:34;5.70;;;4.10;;
14013;SDS011;49110;52.584;13.408;2023-05-10T04:36:37;8.03;;;5.00;;
14013;SDS011;49110;52.584;13.408;2023-05-10T04:37:38;10.50;;;4.23;;
14013;SDS011;49110;52.584;13.408;2023-05-10T04:38:38;5.90;;;4.00;;
14013;SDS011;49110;52.584;13.408;2023-05-10T04:39:39;9.53;;;4.03;;
14013;SDS011;49110;52.584;13.408;2023-05-10T04:40:39;7.10;;;4.23;;
14013;SDS011;49110;52.584;13.408;2023-05-10T04:41:40;6.67;;;4.13;;
14013;SDS011;49110;52.584;13.408;2023-05-10T04:42:40;5.37;;;4.50;;
14013;SDS011;49110;52.584;13.408;2023-05-10T04:43:41;10.03;;;4.90;;
14013;SDS011;49110;52.584;13.408;2023-05-10T04:44:41;6.33;;;4.23;;
14013;SDS011;49110;52.584;13.408;2023-05-10T04:45:42;5.37;;;4.30;;
14013;SDS011;49110;52.584;13.408;2023-05-10T04:46:42;8.63;;;4.10;;
14013;SDS011;49110;52.584;13.408;2023-05-10T04:47:43;11.10;;;4.43;;
14013;SDS011;49110;52.584;13.408;2023-05-10T04:48:43;6.77;;;4.07;;
14013;SDS011;49110;52.584;13.408;2023-05-10T04:49:44;5.57;;;3.97;;
14013;SDS011;49110;52.584;13.408;2023-05-10T04:50:45;6.50;;;3.90;;
14013;SDS011;49110;52.584;13.408;2023-05-10T04:51:45;5.53;;;4.10;;
14013;SDS011;49110;52.584;13.408;2023-05-10T04:52:46;4.63;;;3.93;;
14013;SDS011;49110;52.584;13.408;2023-05-10T04:53:46;6.17;;;4.30;;
14013;SDS011;49110;52.584;13.408;2023-05-10T04:54:47;4.90;;;4.20;;
14013;SDS011;49110;52.584;13.408;2023-05-10T04:55:47;5.53;;;4.20;;
14013;SDS011;49110;52.584;13.408;2023-05-10T04:56:48;10.13;;;4.20;;
14013;SDS011;49110;52.584;13.408;2023-05-10T04:57:49;6.43;;;4.30;;
14013;SDS011;49110;52.584;13.408;2023-05-10T04:58:49;5.20;;;3.77;;
14013;SDS011;49110;52.584;13.408;2023-05-10T04:59:50;5.33;;;3.70;;
14013;SDS011;49110;52.584;13.408;2023-05-10T05:00:50;5.77;;;4.23;;
14013;SDS011;49110;52.584;13.408;2023-05-10T05:01:51;4.97;;;4.03;;
14013;SDS011;49110;52.584;13.408;2023-05-10T05:02:51;4.20;;;3.80;;
14013;SDS011;49110;52.584;13.408;2023-05-10T05:03:52;5.47;;;4.60;;
14013;SDS011;49110;52.584;13.408;2023-05-10T05:04:52;4.77;;;3.97;;
14013;SDS011;49110;52.584;13.408;2023-05-10T05:05:53;5.07;;;4.13;;
14013;SDS011;49110;52.584;13.408;2023-05-10T05:06:53;6.33;;;4.00;;
14013;SDS011;49110;52.584;13.408;2023-05-10T05:07:54;5.70;;;4.23;;
14013;SDS011;49110;52.584;13.408;2023-05-10T05:08:54;4.77;;;3.73;;
14013;SDS011;49110;52.584;13.408;2023-05-10T05:09:54;5.30;;;4.30;;
14013;SDS011;49110;52.584;13.408;2023-05-10T05:10:55;5.07;;;4.00;;
14013;SDS011;49110;52.584;13.408;2023-05-10T05:11:55;5.10;;;3.87;;
14013;SDS011;49110;52.584;13.408;2023-05-10T05:12:56;5.13;;;3.40;;
14013;SDS011;49110;52.584;13.408;2023-05-10T05:13:56;5.50;;;3.87;;
14013;SDS011;49110;52.584;13.408;2023-05-10T05:14:58;8.67;;;4.03;;
14013;SDS011;49110;52.584;13.408;2023-05-10T05:16:00;8.33;;;3.63;;
14013;SDS011;49110;52.584;13.408;2023-05-10T05:17:02;7.53;;;3.73;;
14013;SDS011;49110;52.584;13.408;2023-05-10T05:18:03;6.77;;;3.70;;
14013;SDS011;49110;52.584;13.408;2023-05-10T05:19:04;5.03;;;3.13;;
14013;SDS011;49110;52.584;13.408;2023-05-10T05:20:05;7.10;;;3.97;;
14013;SDS011;49110;52.584;13.408;2023-05-10T05:21:15;4.97;;;3.67;;
14013;SDS011;49110;52.584;13.408;2023-05-10T05:22:17;9.87;;;3.80;;
14013;SDS011;49110;52.584;13.408;2023-05-10T05:23:19;4.83;;;3.60;;
14013;SDS011;49110;52.584;13.408;2023-05-10T05:24:20;3.90;;;3.50;;
14013;SDS011;49110;52.584;13.408;2023-05-10T05:25:21;7.83;;;3.97;;
14013;SDS011;49110;52.584;13.408;2023-05-10T05:26:21;7.17;;;4.03;;
14013;SDS011;49110;52.584;13.408;2023-05-10T05:27:22;8.07;;;3.83;;
14013;SDS011;49110;52.584;13.408;2023-05-10T05:28:24;9.07;;;4.30;;
14013;SDS011;49110;52.584;13.408;2023-05-10T05:29:24;5.93;;;3.83;;
14013;SDS011;49110;52.584;13.408;2023-05-10T05:30:25;8.07;;;3.57;;
14013;SDS011;49110;52.584;13.408;2023-05-10T05:31:25;9.10;;;3.90;;
14013;SDS011;49110;52.584;13.408;2023-05-10T05:32:26;6.37;;;3.53;;
14013;SDS011;49110;52.584;13.408;2023-05-10T05:33:26;3.93;;;3.53;;
14013;SDS011;49110;52.584;13.408;2023-05-10T05:34:27;4.43;;;3.40;;
14013;SDS011;49110;52.584;13.408;2023-05-10T05:35:27;5.40;;;3.37;;
14013;SDS011;49110;52.584;13.408;2023-05-10T05:36:28;4.57;;;3.27;;
14013;SDS011;49110;52.584;13.408;2023-05-10T05:37:28;3.67;;;3.27;;
14013;SDS011;49110;52.584;13.408;2023-05-10T05:38:29;5.03;;;3.83;;
14013;SDS011;49110;52.584;13.408;2023-05-10T05:39:29;8.63;;;4.20;;
14013;SDS011;49110;52.584;13.408;2023-05-10T05:40:30;4.63;;;3.17;;
14013;SDS011;49110;52.584;13.408;2023-05-10T05:41:30;7.00;;;4.00;;
14013;SDS011;49110;52.584;13.408;2023-05-10T05:42:31;7.47;;;3.70;;
14013;SDS011;49110;52.584;13.408;2023-05-10T05:43:32;4.43;;;3.33;;
14013;SDS011;49110;52.584;13.408;2023-05-10T05:44:32;3.70;;;3.03;;
14013;SDS011;49110;52.584;13.408;2023-05-10T05:45:33;4.57;;;3.13;;
14013;SDS011;49110;52.584;13.408;2023-05-10T05:46:33;6.40;;;3.70;;
14013;SDS011;49110;52.584;13.408;2023-05-10T05:47:34;5.87;;;3.50;;
14013;SDS011;49110;52.584;13.408;2023-05-10T05:48:35;6.73;;;3.10;;
14013;SDS011;49110;52.584;13.408;2023-05-10T05:49:35;8.20;;;3.20;;
14013;SDS011;49110;52.584;13.408;2023-05-10T05:50:36;5.93;;;3.40;;
14013;SDS011;49110;52.584;13.408;2023-05-10T05:51:36;3.47;;;3.17;;
14013;SDS011;49110;52.584;13.408;2023-05-10T05:52:37;5.40;;;4.10;;
14013;SDS011;49110;52.584;13.408;2023-05-10T05:53:37;7.40;;;3.27;;
14013;SDS011;49110;52.584;13.408;2023-05-10T05:54:38;5.50;;;3.63;;
14013;SDS011;49110;52.584;13.408;2023-05-10T05:55:38;4.93;;;3.00;;
14013;SDS011;49110;52.584;13.408;2023-05-10T05:56:39;3.73;;;3.40;;
14013;SDS011;49110;52.584;13.408;2023-05-10T05:57:39;6.57;;;3.50;;
14013;SDS011;49110;52.584;13.408;2023-05-10T05:58:40;5.77;;;3.33;;
14013;SDS011;49110;52.584;13.408;2023-05-10T05:59:40;5.33;;;3.23;;
14013;SDS011;49110;52.584;13.408;2023-05-10T06:00:43;7.10;;;3.63;;
14013;SDS011;49110;52.584;13.408;2023-05-10T06:01:44;8.60;;;3.60;;
14013;SDS011;49110;52.584;13.408;2023-05-10T06:02:45;9.33;;;3.50;;
14013;SDS011;49110;52.584;13.408;2023-05-10T06:03:46;6.57;;;3.13;;
14013;SDS011;49110;52.584;13.408;2023-05-10T06:04:46;4.97;;;2.83;;
14013;SDS011;49110;52.584;13.408;2023-05-10T06:05:47;7.07;;;3.60;;
14013;SDS011;49110;52.584;13.408;2023-05-10T06:06:47;4.10;;;3.17;;
14013;SDS011;49110;52.584;13.408;2023-05-10T06:07:48;5.80;;;3.07;;
14013;SDS011;49110;52.584;13.408;2023-05-10T06:08:48;5.60;;;2.80;;
14013;SDS011;49110;52.584;13.408;2023-05-10T06:09:49;3.93;;;3.30;;
14013;SDS011;49110;52.584;13.408;2023-05-10T06:10:49;4.03;;;3.03;;
14013;SDS011;49110;52.584;13.408;2023-05-10T06:11:50;5.70;;;3.40;;
14013;SDS011;49110;52.584;13.408;2023-05-10T06:12:50;6.83;;;3.17;;
14013;SDS011;49110;52.584;13.408;2023-05-10T06:13:51;7.77;;;3.00;;
14013;SDS011;49110;52.584;13.408;2023-05-10T06:14:51;4.47;;;2.80;;
14013;SDS011;49110;52.584;13.408;2023-05-10T06:15:52;4.87;;;3.03;;
14013;SDS011;49110;52.584;13.408;2023-05-10T06:16:52;7.03;;;3.20;;
14013;SDS011;49110;52.584;13.408;2023-05-10T06:17:53;3.83;;;2.90;;
14013;SDS011;49110;52.584;13.408;2023-05-10T06:18:53;4.17;;;2.80;;
14013;SDS011;49110;52.584;13.408;2023-05-10T06:19:54;4.53;;;3.20;;
14013;SDS011;49110;52.584;13.408;2023-05-10T06:20:55;5.90;;;2.83;;